createdAt,value
2023-04-22T05:02:57.583Z,72.59
2023-04-22T05:07:59.547Z,72.60
2023-04-22T05:13:04.138Z,72.73
2023-04-22T05:18:06.697Z,72.23
2023-04-22T05:23:08.363Z,72.67
2023-04-22T05:28:09.966Z,72.81
2023-04-22T05:33:19.661Z,72.42
2023-04-22T05:38:21.181Z,72.76
2023-04-22T05:43:23.455Z,72.84
2023-04-22T05:48:34.363Z,72.59
2023-04-22T05:53:42.032Z,72.90
2023-04-22T05:58:44.982Z,73.85
2023-04-22T06:03:51.864Z,73.55
2023-04-22T06:08:53.786Z,73.25
2023-04-22T06:13:55.400Z,73.49
2023-04-22T06:18:57.146Z,73.52
2023-04-22T06:24:04.270Z,73.50
2023-04-22T06:29:05.967Z,73.60
2023-04-22T06:34:08.950Z,73.51
2023-04-22T06:39:11.052Z,73.62
2023-04-22T06:44:22.724Z,73.70
2023-04-22T06:49:53.524Z,73.90
2023-04-22T06:55:17.773Z,73.87
2023-04-22T07:00:20.190Z,73.67
2023-04-22T07:05:21.900Z,73.70
2023-04-22T07:10:24.737Z,73.70
2023-04-22T07:15:58.318Z,73.64
2023-04-22T07:20:59.877Z,73.34
2023-04-22T07:26:01.368Z,73.16
2023-04-22T07:31:03.190Z,72.36
2023-04-22T07:36:05.298Z,72.40
2023-04-22T07:41:06.760Z,72.47
2023-04-22T07:46:08.322Z,71.75
2023-04-22T07:51:09.968Z,72.01
2023-04-22T07:56:11.587Z,71.46
2023-04-22T08:01:13.053Z,71.58
2023-04-22T08:06:14.669Z,70.71
2023-04-22T08:11:16.161Z,71.19
2023-04-22T08:16:17.870Z,71.42
2023-04-22T08:21:19.322Z,71.36
2023-04-22T08:26:21.198Z,70.79
2023-04-22T08:31:22.819Z,69.98
2023-04-22T08:36:25.877Z,70.20
2023-04-22T08:41:27.616Z,69.85
2023-04-22T08:46:30.827Z,68.27
2023-04-22T08:51:35.393Z,66.92
2023-04-22T08:56:40.734Z,66.12
2023-04-22T09:01:43.204Z,64.74
2023-04-22T09:06:44.727Z,63.82
2023-04-22T09:11:46.219Z,63.33
2023-04-22T09:16:48.583Z,62.13
2023-04-22T09:21:52.063Z,64.82
2023-04-22T09:26:57.275Z,62.93
2023-04-22T09:31:58.758Z,61.18
2023-04-22T09:37:00.341Z,60.93
2023-04-22T09:42:01.967Z,60.56
2023-04-22T09:47:03.513Z,60.52
2023-04-22T09:52:05.890Z,59.16
2023-04-22T09:57:13.540Z,59.13
2023-04-22T10:02:15.372Z,59.56
2023-04-22T10:07:17.470Z,60.00
2023-04-22T10:12:26.085Z,59.47
2023-04-22T10:17:33.701Z,58.94
2023-04-22T10:22:35.751Z,58.25
2023-04-22T10:27:39.097Z,58.80
2023-04-22T10:32:40.711Z,58.94
2023-04-22T10:37:43.328Z,59.23
2023-04-22T10:42:52.057Z,57.50
2023-04-22T10:47:53.713Z,57.11
2023-04-22T10:52:57.621Z,56.59
2023-04-22T10:57:59.432Z,57.54
2023-04-22T11:03:10.840Z,56.13
2023-04-22T11:08:16.584Z,55.97
2023-04-22T11:13:20.436Z,56.05
2023-04-22T11:18:26.386Z,56.19
2023-04-22T11:23:28.762Z,54.84
2023-04-22T11:28:30.717Z,54.10
2023-04-22T11:33:34.484Z,54.54
2023-04-22T11:38:36.026Z,54.76
2023-04-22T11:43:46.827Z,54.58
2023-04-22T11:48:48.279Z,55.17
2023-04-22T11:53:51.161Z,54.04
2023-04-22T11:58:52.600Z,53.89
2023-04-22T12:04:00.816Z,54.35
2023-04-22T12:09:02.574Z,55.31
2023-04-22T12:14:11.486Z,55.30
2023-04-22T12:19:13.236Z,54.21
2023-04-22T12:24:15.013Z,54.30
2023-04-22T12:29:16.440Z,53.94
2023-04-22T12:34:17.935Z,53.87
2023-04-22T12:39:19.717Z,54.58
2023-04-22T12:44:22.512Z,54.29
2023-04-22T12:49:25.954Z,54.05
2023-04-22T12:54:27.410Z,54.62
2023-04-22T12:59:28.896Z,53.22
2023-04-22T13:04:30.456Z,52.18
2023-04-22T13:09:31.917Z,52.19
2023-04-22T13:14:33.374Z,48.91
2023-04-22T13:19:35.252Z,46.32
2023-04-22T13:24:36.805Z,44.72
2023-04-22T13:29:38.398Z,46.51
2023-04-22T13:34:40.138Z,42.76
2023-04-22T13:39:42.082Z,42.14
2023-04-22T13:44:43.703Z,42.85
2023-04-22T13:49:45.275Z,43.51
2023-04-22T13:54:46.715Z,43.15
2023-04-22T13:59:49.444Z,43.18
2023-04-22T14:04:50.961Z,44.16
2023-04-22T14:09:52.364Z,46.64
2023-04-22T14:14:53.797Z,46.19
2023-04-22T14:19:55.260Z,45.76
2023-04-22T14:24:56.782Z,46.81
2023-04-22T14:29:58.351Z,46.11
2023-04-22T14:34:59.920Z,46.60
2023-04-22T14:40:01.619Z,47.18
2023-04-22T14:45:03.368Z,46.29
2023-04-22T14:50:05.443Z,45.10
2023-04-22T14:55:19.341Z,43.90
2023-04-22T15:00:27.359Z,42.93
2023-04-22T15:05:28.803Z,41.47
2023-04-22T15:10:30.359Z,42.10
2023-04-22T15:15:31.902Z,43.28
2023-04-22T15:20:33.424Z,43.92
2023-04-22T15:25:35.624Z,43.62
2023-04-22T15:30:37.240Z,43.82
2023-04-22T15:35:38.595Z,46.82
2023-04-22T15:40:40.074Z,46.77
2023-04-22T15:45:41.780Z,47.18
2023-04-22T15:50:43.365Z,46.64
2023-04-22T15:55:45.803Z,47.97
2023-04-22T16:00:48.380Z,48.74
2023-04-22T16:05:49.935Z,48.19
2023-04-22T16:10:51.517Z,47.17
2023-04-22T16:15:53.027Z,47.33
2023-04-22T16:20:54.741Z,47.68
2023-04-22T16:25:56.190Z,46.39
2023-04-22T16:30:57.673Z,45.80
2023-04-22T16:35:59.122Z,46.07
2023-04-22T16:41:00.703Z,45.99
2023-04-22T16:46:02.473Z,46.96
2023-04-22T16:51:04.223Z,49.58
2023-04-22T16:56:05.909Z,48.29
2023-04-22T17:01:07.366Z,49.97
2023-04-22T17:06:08.844Z,50.83
2023-04-22T17:11:11.138Z,51.25
2023-04-22T17:16:12.654Z,52.28
2023-04-22T17:21:14.212Z,52.97
2023-04-22T17:26:15.860Z,54.67
2023-04-22T17:31:18.037Z,55.74
2023-04-22T17:36:20.147Z,55.79
2023-04-22T17:41:21.905Z,55.76
2023-04-22T17:46:23.356Z,56.46
2023-04-22T17:51:24.906Z,57.02
2023-04-22T17:56:26.498Z,57.74
2023-04-22T18:01:29.558Z,57.83
2023-04-22T18:06:32.339Z,58.02
2023-04-22T18:11:34.160Z,57.90
2023-04-22T18:16:35.935Z,57.82
2023-04-22T18:21:41.646Z,58.74
2023-04-22T18:26:49.177Z,58.68
2023-04-22T18:31:50.754Z,58.61
2023-04-22T18:36:52.332Z,59.02
2023-04-22T18:41:54.012Z,59.00
2023-04-22T18:46:55.620Z,59.27
2023-04-22T18:51:57.426Z,59.57
2023-04-22T18:56:58.850Z,59.71
2023-04-22T19:02:00.551Z,59.58
2023-04-22T19:07:02.032Z,59.92
2023-04-22T19:12:04.073Z,60.25
2023-04-22T19:17:05.548Z,60.81
2023-04-22T19:22:07.127Z,61.17
2023-04-22T19:27:12.308Z,61.35
2023-04-22T19:32:13.824Z,61.18
2023-04-22T19:37:15.936Z,61.62
2023-04-22T19:42:18.323Z,61.54
2023-04-22T19:47:19.826Z,62.86
2023-04-22T19:52:21.965Z,62.65
2023-04-22T19:57:23.973Z,62.79
2023-04-22T20:02:25.823Z,62.21
2023-04-22T20:07:28.542Z,62.12
2023-04-22T20:12:30.745Z,61.64
2023-04-22T20:17:35.750Z,61.66
2023-04-22T20:22:38.007Z,61.50
2023-04-22T20:27:40.058Z,61.89
2023-04-22T20:32:42.137Z,61.78
2023-04-22T20:37:46.412Z,62.02
2023-04-22T20:42:47.835Z,61.90
2023-04-22T20:47:49.315Z,62.27
2023-04-22T20:52:51.988Z,62.25
2023-04-22T20:57:53.443Z,61.91
2023-04-22T21:02:55.780Z,61.43
2023-04-22T21:07:59.971Z,61.46
2023-04-22T21:13:01.707Z,61.15
2023-04-22T21:18:04.986Z,61.40
2023-04-22T21:23:07.740Z,61.64
2023-04-22T21:28:09.558Z,61.28
2023-04-22T21:33:11.006Z,61.78
2023-04-22T21:38:13.814Z,61.92
2023-04-22T21:43:15.324Z,62.57
2023-04-22T21:48:16.901Z,62.88
2023-04-22T21:53:20.510Z,62.93
2023-04-22T21:58:22.317Z,62.51
